createdAt,value
2023-04-11T00:01:48.984Z,29.00
2023-04-11T00:04:20.651Z,30.40
2023-04-11T00:06:48.109Z,32.20
2023-04-11T00:09:16.020Z,32.40
2023-04-11T00:11:42.880Z,28.60
2023-04-11T00:14:10.362Z,30.50
2023-04-11T00:16:37.715Z,26.20
2023-04-11T00:19:06.770Z,25.40
2023-04-11T00:21:35.052Z,29.10
2023-04-11T00:24:01.840Z,23.40
2023-04-11T00:26:28.662Z,20.00
2023-04-11T00:28:57.035Z,22.10
2023-04-11T00:31:23.758Z,21.40
2023-04-11T00:33:50.541Z,22.10
2023-04-11T00:36:17.191Z,23.40
2023-04-11T00:38:51.023Z,21.80
2023-04-11T00:41:18.447Z,19.90
2023-04-11T00:43:49.004Z,23.80
2023-04-11T00:46:16.536Z,24.30
2023-04-11T00:48:43.247Z,23.90
2023-04-11T00:51:20.973Z,24.30
2023-04-11T00:53:49.498Z,20.90
2023-04-11T00:56:16.438Z,23.80
2023-04-11T00:58:43.652Z,20.20
2023-04-11T01:01:10.383Z,22.50
2023-04-11T01:03:43.796Z,22.80
2023-04-11T01:06:17.528Z,19.60
2023-04-11T01:08:44.423Z,20.50
2023-04-11T01:11:12.200Z,23.10
2023-04-11T01:13:40.400Z,18.10
2023-04-11T01:16:10.340Z,19.90
2023-04-11T01:18:37.559Z,22.10
2023-04-11T01:21:04.633Z,22.40
2023-04-11T01:23:33.691Z,23.30
2023-04-11T01:26:00.511Z,22.40
2023-04-11T01:28:27.959Z,24.40
2023-04-11T01:30:54.870Z,24.20
2023-04-11T01:33:23.861Z,26.30
2023-04-11T01:35:50.640Z,24.90
2023-04-11T01:38:22.993Z,29.10
2023-04-11T01:40:51.368Z,27.00
2023-04-11T01:43:18.138Z,24.70
2023-04-11T01:45:45.385Z,30.50
2023-04-11T01:48:14.107Z,36.50
2023-04-11T01:50:42.273Z,50.30
2023-04-11T01:53:09.876Z,39.70
2023-04-11T01:55:36.663Z,54.30
2023-04-11T01:58:03.553Z,66.30
2023-04-11T02:00:32.013Z,54.20
2023-04-11T02:02:58.816Z,34.40
2023-04-11T02:05:26.021Z,43.40
2023-04-11T02:07:58.454Z,40.60
2023-04-11T02:10:26.044Z,38.20
2023-04-11T02:12:52.812Z,40.20
2023-04-11T02:15:30.209Z,45.70
2023-04-11T02:18:01.426Z,76.30
2023-04-11T02:20:29.007Z,69.40
2023-04-11T02:23:05.425Z,61.90
2023-04-11T02:25:33.672Z,64.00
2023-04-11T02:28:00.817Z,47.90
2023-04-11T02:30:28.654Z,52.10
2023-04-11T02:32:58.119Z,51.50
2023-04-11T02:35:25.711Z,50.00
2023-04-11T02:37:55.028Z,54.50
2023-04-11T02:40:23.785Z,55.60
2023-04-11T02:42:50.573Z,57.30
2023-04-11T02:45:18.016Z,59.10
2023-04-11T02:47:45.530Z,57.30
2023-04-11T02:50:15.115Z,56.70
2023-04-11T02:52:47.933Z,56.40
2023-04-11T02:55:17.280Z,50.10
2023-04-11T02:57:47.498Z,51.20
2023-04-11T03:00:19.051Z,55.10
2023-04-11T03:02:52.267Z,54.90
2023-04-11T03:05:22.854Z,46.60
2023-04-11T03:07:52.280Z,51.00
2023-04-11T03:10:23.882Z,47.40
2023-04-11T03:12:51.042Z,44.80
2023-04-11T03:15:18.137Z,46.40
2023-04-11T03:17:45.922Z,47.00
2023-04-11T03:20:19.208Z,51.90
2023-04-11T03:22:48.754Z,52.00
2023-04-11T03:25:16.535Z,48.20
2023-04-11T03:27:45.093Z,53.80
2023-04-11T03:30:15.683Z,53.00
2023-04-11T03:32:45.928Z,53.70
2023-04-11T03:35:14.238Z,43.50
2023-04-11T03:37:44.928Z,45.80
2023-04-11T03:40:13.238Z,48.60
2023-04-11T03:42:45.800Z,49.00
2023-04-11T03:45:15.500Z,46.50
2023-04-11T03:47:42.809Z,57.30
2023-04-11T03:50:10.902Z,58.90
2023-04-11T03:52:41.632Z,51.30
2023-04-11T03:55:12.131Z,44.80
2023-04-11T03:57:38.961Z,49.20
2023-04-11T04:00:07.763Z,61.40
2023-04-11T04:03:01.801Z,43.70
2023-04-11T04:05:29.412Z,44.20
2023-04-11T04:07:56.630Z,56.30
2023-04-11T04:10:38.637Z,53.20
2023-04-11T04:13:05.321Z,53.20
2023-04-11T04:15:41.814Z,52.00
2023-04-11T04:18:10.214Z,49.10
2023-04-11T04:20:46.782Z,47.30
2023-04-11T04:23:17.584Z,42.00
2023-04-11T04:37:44.654Z,27.00
2023-04-11T04:40:20.061Z,24.00
2023-04-11T04:43:08.682Z,27.50
2023-04-11T04:45:40.490Z,29.10
2023-04-11T04:48:07.749Z,29.90
2023-04-11T04:50:34.937Z,30.40
2023-04-11T04:53:06.722Z,36.00
2023-04-11T04:55:34.017Z,38.10
2023-04-11T04:58:01.491Z,47.00
2023-04-11T05:00:33.098Z,42.70
2023-04-11T05:03:05.169Z,43.60
2023-04-11T05:05:32.604Z,40.90
2023-04-11T05:08:00.656Z,37.30
2023-04-11T05:10:27.937Z,31.90
2023-04-11T05:12:58.219Z,30.00
2023-04-11T05:15:25.048Z,28.80
2023-04-11T05:17:53.586Z,23.90
2023-04-11T05:20:21.401Z,26.10
2023-04-11T05:22:49.692Z,25.70
2023-04-11T05:25:17.817Z,28.50
2023-04-11T05:27:45.817Z,23.80
2023-04-11T05:30:13.207Z,27.50
2023-04-11T05:32:50.480Z,22.20
2023-04-11T05:35:17.632Z,21.30
2023-04-11T05:37:52.328Z,21.50
2023-04-11T05:40:19.829Z,21.00
2023-04-11T05:42:48.874Z,23.00
2023-04-11T05:45:17.982Z,21.40
2023-04-11T05:47:45.980Z,23.30
2023-04-11T05:50:13.813Z,19.10
2023-04-11T05:52:44.265Z,19.20
2023-04-11T05:55:11.650Z,21.60
2023-04-11T05:57:41.294Z,22.60
2023-04-11T06:00:13.773Z,20.80
2023-04-11T06:02:42.440Z,23.50
2023-04-11T06:05:12.962Z,20.40
2023-04-11T06:07:40.852Z,21.40
2023-04-11T06:10:08.578Z,17.90
2023-04-11T06:12:41.019Z,22.90
2023-04-11T06:15:11.456Z,19.00
2023-04-11T06:17:38.881Z,18.10
2023-04-11T06:20:08.012Z,18.80
2023-04-11T06:22:35.240Z,22.80
2023-04-11T06:25:02.621Z,19.50
2023-04-11T06:27:31.550Z,21.50
2023-04-11T06:29:59.406Z,18.00
2023-04-11T06:32:26.781Z,16.80
2023-04-11T06:34:53.603Z,17.40
2023-04-11T06:37:20.612Z,15.90
2023-04-11T06:39:47.530Z,15.70
2023-04-11T06:42:15.040Z,17.80
2023-04-11T06:44:45.563Z,15.00
2023-04-11T06:47:12.942Z,16.70
2023-04-11T06:49:40.945Z,17.20
2023-04-11T06:52:09.137Z,13.70
2023-04-11T06:54:36.842Z,18.60
2023-04-11T06:57:04.051Z,14.90
2023-04-11T06:59:32.722Z,12.80
2023-04-11T07:02:00.333Z,10.60
2023-04-11T07:04:27.798Z,8.70
2023-04-11T07:07:00.483Z,8.60
2023-04-11T07:09:28.895Z,10.90
2023-04-11T07:11:56.194Z,11.50
2023-04-11T07:14:26.521Z,8.30
2023-04-11T07:16:53.925Z,9.20
2023-04-11T07:19:21.508Z,11.50
2023-04-11T07:21:49.161Z,8.50
2023-04-11T07:24:18.288Z,11.00
2023-04-11T07:26:45.977Z,10.10
2023-04-11T07:29:14.665Z,10.40
2023-04-11T07:31:44.373Z,6.90
2023-04-11T07:34:11.521Z,8.90
2023-04-11T07:36:38.964Z,7.70
2023-04-11T07:39:08.770Z,7.90
2023-04-11T07:41:39.164Z,8.40
2023-04-11T07:44:07.030Z,8.60
2023-04-11T07:46:34.925Z,8.20
2023-04-11T07:49:01.887Z,9.40
2023-04-11T07:51:29.294Z,7.20
2023-04-11T07:53:58.065Z,10.90
2023-04-11T07:56:25.270Z,8.80
2023-04-11T07:58:52.177Z,10.40
2023-04-11T08:01:24.344Z,12.70
2023-04-11T08:03:53.320Z,8.00
2023-04-11T08:06:20.652Z,7.30
2023-04-11T08:08:50.727Z,10.70
2023-04-11T08:11:17.900Z,8.60
2023-04-11T08:13:44.671Z,8.10
2023-04-11T08:16:15.021Z,9.10
2023-04-11T08:18:42.729Z,7.70
2023-04-11T08:21:10.993Z,9.40
2023-04-11T08:23:39.174Z,11.20
2023-04-11T08:26:06.940Z,10.70
2023-04-11T08:28:34.105Z,8.70
2023-04-11T08:31:02.373Z,6.70
2023-04-11T08:33:30.126Z,9.90
2023-04-11T08:35:57.616Z,9.30
2023-04-11T08:38:25.944Z,8.90
2023-04-11T08:40:52.987Z,9.70
2023-04-11T08:43:20.301Z,7.20
2023-04-11T08:45:47.045Z,8.30
2023-04-11T08:48:16.718Z,11.90
2023-04-11T08:50:43.411Z,10.40
2023-04-11T08:53:21.165Z,9.50
2023-04-11T08:55:48.054Z,7.70
2023-04-11T08:58:14.810Z,8.50
2023-04-11T09:00:41.938Z,9.00
2023-04-11T09:03:10.617Z,9.80
2023-04-11T09:05:40.204Z,6.70
2023-04-11T09:08:09.140Z,8.20
2023-04-11T09:10:37.246Z,7.80
2023-04-11T09:13:22.824Z,9.20
2023-04-11T09:16:03.243Z,10.50
2023-04-11T09:18:31.368Z,8.70
2023-04-11T09:21:00.173Z,8.00
2023-04-11T09:23:27.387Z,7.20
2023-04-11T09:25:55.236Z,8.90
2023-04-11T09:28:21.949Z,13.70
2023-04-11T09:30:50.832Z,9.00
2023-04-11T09:33:23.914Z,9.00
2023-04-11T09:35:52.637Z,9.60
2023-04-11T09:38:30.600Z,8.20
2023-04-11T09:40:58.221Z,7.50
2023-04-11T09:43:25.116Z,8.30
2023-04-11T09:46:11.288Z,8.50
2023-04-11T09:51:11.457Z,7.30
2023-04-11T09:53:38.248Z,6.80
2023-04-11T09:56:08.265Z,7.40
2023-04-11T09:58:36.916Z,6.90
2023-04-11T10:01:07.147Z,7.70
2023-04-11T10:03:36.205Z,8.50
2023-04-11T10:06:09.213Z,7.00
2023-04-11T10:08:36.417Z,9.20
2023-04-11T10:11:09.137Z,9.40
2023-04-11T10:13:57.394Z,11.10
2023-04-11T10:16:26.181Z,7.80
2023-04-11T10:18:53.496Z,7.30
2023-04-11T10:21:42.080Z,7.10
2023-04-11T10:24:10.535Z,7.00
2023-04-11T10:26:58.088Z,5.70
2023-04-11T10:29:28.343Z,8.80
2023-04-11T10:32:16.950Z,7.90
2023-04-11T10:34:49.902Z,8.10
2023-04-11T10:37:17.802Z,6.50
2023-04-11T10:39:47.376Z,6.40
2023-04-11T10:42:30.942Z,6.60
2023-04-11T10:45:15.090Z,5.60
2023-04-11T10:47:42.824Z,8.30
2023-04-11T10:50:29.888Z,5.90
2023-04-11T10:53:00.126Z,6.80
2023-04-11T10:55:28.279Z,8.10
2023-04-11T10:58:07.412Z,6.70
2023-04-11T11:00:46.959Z,6.00
2023-04-11T11:03:24.985Z,5.70
2023-04-11T11:05:59.726Z,7.60
2023-04-11T11:08:30.872Z,6.30
2023-04-11T11:11:01.891Z,6.50
2023-04-11T11:13:51.963Z,6.40
2023-04-11T11:16:20.626Z,6.50
2023-04-11T11:18:53.939Z,6.00
2023-04-11T11:21:27.608Z,6.10
2023-04-11T11:23:55.362Z,7.70
2023-04-11T11:26:24.324Z,6.30
2023-04-11T11:28:51.486Z,4.90
2023-04-11T11:31:18.290Z,6.00
2023-04-11T11:33:45.227Z,8.20
2023-04-11T11:36:12.014Z,6.40
2023-04-11T11:38:38.913Z,6.40
2023-04-11T11:41:05.917Z,4.30
2023-04-11T11:43:35.406Z,6.90
2023-04-11T11:46:15.949Z,8.20
2023-04-11T11:48:56.877Z,7.20
2023-04-11T11:51:24.158Z,7.50
2023-04-11T11:54:08.121Z,8.70
2023-04-11T11:59:05.232Z,9.30
2023-04-11T12:01:35.985Z,4.70
2023-04-11T12:04:06.294Z,7.80
2023-04-11T12:06:33.926Z,4.80
2023-04-11T12:09:11.604Z,7.60
2023-04-11T12:11:42.634Z,6.00
2023-04-11T12:14:11.803Z,7.10
2023-04-11T12:16:39.117Z,7.60
2023-04-11T12:19:10.527Z,7.30
2023-04-11T12:21:37.764Z,6.10
2023-04-11T12:24:05.322Z,6.90
2023-04-11T12:26:33.533Z,7.30
2023-04-11T12:29:02.731Z,6.70
2023-04-11T12:31:30.117Z,7.40
2023-04-11T12:33:57.331Z,6.40
2023-04-11T12:36:24.150Z,6.00
2023-04-11T12:38:50.694Z,7.70
2023-04-11T12:43:46.997Z,6.10
2023-04-11T12:46:14.012Z,7.80
2023-04-11T12:48:41.235Z,5.00
2023-04-11T12:51:08.939Z,8.20
2023-04-11T12:53:36.871Z,5.60
2023-04-11T12:56:03.981Z,6.40
2023-04-11T12:58:32.445Z,6.10
2023-04-11T13:00:59.093Z,6.00
2023-04-11T13:03:26.804Z,6.00
2023-04-11T13:05:55.303Z,7.40
2023-04-11T13:08:23.943Z,7.40
2023-04-11T13:10:50.651Z,5.20
2023-04-11T13:13:19.346Z,6.80
2023-04-11T13:15:46.647Z,7.30
2023-04-11T13:18:13.891Z,6.80
2023-04-11T13:20:42.042Z,8.80
2023-04-11T13:23:09.912Z,8.80
2023-04-11T13:25:37.358Z,7.80
2023-04-11T13:28:04.157Z,7.40
2023-04-11T13:30:31.269Z,6.10
2023-04-11T13:32:59.960Z,6.30
2023-04-11T13:35:27.362Z,6.10
2023-04-11T13:37:54.476Z,6.20
2023-04-11T13:40:21.455Z,8.50
2023-04-11T13:42:48.318Z,5.80
2023-04-11T13:45:15.011Z,8.70
2023-04-11T13:47:41.858Z,6.80
2023-04-11T13:50:08.868Z,7.60
2023-04-11T13:52:35.758Z,7.50
2023-04-11T13:55:02.917Z,7.70
2023-04-11T13:57:29.826Z,8.60
2023-04-11T13:59:56.756Z,6.60
2023-04-11T14:02:23.967Z,7.80
2023-04-11T14:04:51.466Z,6.40
2023-04-11T14:07:18.218Z,7.40
2023-04-11T14:09:44.823Z,8.00
2023-04-11T14:12:11.453Z,8.90
2023-04-11T14:14:38.259Z,5.70
2023-04-11T14:17:05.986Z,6.50
2023-04-11T14:19:33.209Z,8.10
2023-04-11T14:22:00.168Z,5.20
2023-04-11T14:24:27.967Z,5.10
2023-04-11T14:26:56.232Z,5.40
2023-04-11T14:29:23.091Z,6.40
2023-04-11T14:31:50.577Z,10.00
2023-04-11T14:34:18.725Z,9.20
2023-04-11T14:36:45.541Z,8.60
2023-04-11T14:39:12.324Z,5.70
2023-04-11T14:41:40.393Z,6.20
2023-04-11T14:44:07.227Z,9.60
2023-04-11T14:46:35.160Z,5.50
2023-04-11T14:49:02.272Z,8.00
2023-04-11T14:51:37.198Z,6.50
2023-04-11T14:54:04.327Z,5.40
2023-04-11T14:56:31.143Z,7.30
2023-04-11T14:58:58.617Z,7.40
2023-04-11T15:01:26.016Z,7.10
2023-04-11T15:03:53.898Z,6.30
2023-04-11T15:06:28.894Z,7.60
2023-04-11T15:08:56.626Z,6.10
2023-04-11T15:11:24.172Z,6.60
2023-04-11T15:13:56.417Z,6.50
2023-04-11T15:16:23.490Z,7.60
2023-04-11T15:18:50.536Z,10.40
2023-04-11T15:21:26.900Z,8.10
2023-04-11T15:23:54.136Z,9.30
2023-04-11T15:26:21.544Z,8.10
2023-04-11T15:28:53.514Z,6.40
2023-04-11T15:31:24.839Z,7.70
2023-04-11T15:33:52.347Z,7.20
2023-04-11T15:36:19.049Z,8.40
2023-04-11T15:38:46.703Z,10.20
2023-04-11T15:41:13.349Z,6.10
2023-04-11T15:43:42.226Z,7.20
2023-04-11T15:46:09.608Z,11.90
2023-04-11T15:48:40.935Z,8.90
2023-04-11T15:51:11.328Z,7.50
2023-04-11T15:53:38.163Z,7.60
2023-04-11T15:56:06.463Z,9.30
2023-04-11T15:58:33.966Z,7.70
2023-04-11T16:01:28.585Z,6.90
2023-04-11T16:03:59.151Z,7.40
2023-04-11T16:06:26.804Z,6.60
2023-04-11T16:08:53.722Z,8.80
2023-04-11T16:11:20.484Z,8.40
2023-04-11T16:13:47.311Z,8.90
2023-04-11T16:16:14.170Z,7.60
2023-04-11T16:18:42.424Z,7.40
2023-04-11T16:21:13.512Z,11.40
2023-04-11T16:23:42.600Z,7.20
2023-04-11T16:26:10.406Z,8.40
2023-04-11T16:28:37.030Z,9.70
2023-04-11T16:31:04.159Z,10.40
2023-04-11T16:33:31.268Z,8.60
2023-04-11T16:35:58.084Z,8.40
2023-04-11T16:38:24.965Z,12.20
2023-04-11T16:40:51.734Z,8.50
2023-04-11T16:45:10.952Z,7.70
2023-04-11T16:47:37.968Z,9.50
2023-04-11T16:50:05.551Z,9.20
2023-04-11T16:52:32.538Z,12.90
2023-04-11T16:55:02.975Z,9.70
2023-04-11T16:57:32.565Z,10.50
2023-04-11T17:00:00.251Z,8.80
2023-04-11T17:02:28.970Z,10.20
2023-04-11T17:04:57.799Z,9.30
2023-04-11T17:07:25.005Z,9.30
2023-04-11T17:09:51.826Z,8.90
2023-04-11T17:12:18.604Z,8.60
2023-04-11T17:14:55.268Z,10.80
2023-04-11T17:17:28.327Z,10.40
2023-04-11T17:19:56.006Z,11.90
2023-04-11T17:22:23.844Z,13.70
2023-04-11T17:24:51.053Z,9.80
2023-04-11T17:27:25.436Z,8.60
2023-04-11T17:29:52.495Z,10.70
2023-04-11T17:32:19.201Z,8.00
2023-04-11T17:34:47.224Z,9.90
2023-04-11T17:37:13.924Z,12.30
2023-04-11T17:39:41.403Z,10.50
2023-04-11T17:42:14.015Z,10.80
2023-04-11T17:44:41.494Z,8.00
2023-04-11T17:47:08.233Z,9.90
2023-04-11T17:49:36.201Z,11.60
2023-04-11T17:52:03.152Z,11.70
2023-04-11T17:54:30.200Z,11.10
2023-04-11T17:56:56.954Z,11.20
2023-04-11T17:59:24.885Z,12.30
2023-04-11T18:01:52.943Z,9.80
2023-04-11T18:04:21.149Z,11.60
2023-04-11T18:06:47.996Z,10.00
2023-04-11T18:09:16.595Z,9.30
2023-04-11T18:11:43.599Z,9.80
2023-04-11T18:14:10.895Z,11.40
2023-04-11T18:16:40.808Z,11.20
2023-04-11T18:19:08.231Z,11.40
2023-04-11T18:21:38.521Z,15.60
2023-04-11T18:24:08.415Z,12.10
2023-04-11T18:26:35.580Z,12.80
2023-04-11T18:29:20.388Z,12.10
2023-04-11T18:31:47.558Z,10.70
2023-04-11T18:34:14.742Z,10.60
2023-04-11T18:36:46.909Z,13.50
2023-04-11T18:39:14.464Z,9.50
2023-04-11T18:41:41.301Z,8.60
2023-04-11T18:44:10.167Z,10.10
2023-04-11T18:46:37.834Z,12.20
2023-04-11T18:49:07.398Z,12.80
2023-04-11T18:51:35.136Z,14.50
2023-04-11T18:54:05.484Z,10.80
2023-04-11T18:56:33.828Z,10.50
2023-04-11T18:59:05.028Z,13.60
2023-04-11T19:01:33.848Z,11.60
2023-04-11T19:04:02.082Z,11.70
2023-04-11T19:06:29.094Z,15.20
2023-04-11T19:08:56.666Z,13.30
2023-04-11T19:11:23.579Z,11.00
2023-04-11T19:13:53.708Z,11.30
2023-04-11T19:16:25.843Z,12.00
2023-04-11T19:18:53.077Z,9.90
2023-04-11T19:21:19.849Z,10.70
2023-04-11T19:23:49.153Z,13.90
2023-04-11T19:26:16.011Z,10.60
2023-04-11T19:28:45.346Z,10.90
2023-04-11T19:31:12.188Z,15.50
2023-04-11T19:33:39.581Z,10.40
2023-04-11T19:36:06.442Z,9.80
2023-04-11T19:38:35.842Z,12.30
2023-04-11T19:41:10.820Z,9.30
2023-04-11T19:43:38.362Z,11.10
2023-04-11T19:46:06.632Z,12.10
2023-04-11T19:48:33.447Z,10.80
2023-04-11T19:51:01.648Z,10.80
2023-04-11T19:53:29.968Z,11.30
2023-04-11T19:55:59.016Z,10.30
2023-04-11T19:58:26.517Z,14.20
2023-04-11T20:00:57.831Z,9.10
2023-04-11T20:03:27.312Z,9.00
2023-04-11T20:05:55.191Z,11.00
2023-04-11T20:08:22.156Z,12.80
2023-04-11T20:10:49.236Z,9.10
2023-04-11T20:13:16.698Z,10.80
2023-04-11T20:15:43.456Z,10.60
2023-04-11T20:18:11.134Z,11.00
2023-04-11T20:20:37.992Z,12.50
2023-04-11T20:23:15.197Z,8.40
2023-04-11T20:25:42.818Z,10.90
2023-04-11T20:28:09.418Z,8.70
2023-04-11T20:30:39.068Z,9.60
2023-04-11T20:33:07.254Z,11.60
2023-04-11T20:35:34.215Z,14.30
2023-04-11T20:38:02.202Z,8.40
2023-04-11T20:40:29.280Z,9.40
2023-04-11T20:42:59.532Z,10.70
2023-04-11T20:45:27.353Z,10.10
2023-04-11T20:47:54.861Z,12.20
2023-04-11T20:50:21.914Z,10.50
2023-04-11T20:52:52.246Z,14.00
2023-04-11T20:55:20.334Z,10.90
2023-04-11T20:57:47.067Z,10.30
2023-04-11T21:00:16.397Z,12.30
2023-04-11T21:02:49.526Z,10.90
2023-04-11T21:05:18.069Z,13.80
2023-04-11T21:07:53.700Z,13.00
2023-04-11T21:10:20.555Z,12.50
2023-04-11T21:12:53.265Z,9.70
2023-04-11T21:15:23.451Z,11.80
2023-04-11T21:17:51.582Z,9.00
2023-04-11T21:20:19.625Z,10.50
2023-04-11T21:22:49.592Z,10.00
2023-04-11T21:25:17.104Z,7.30
2023-04-11T21:27:44.885Z,10.20
2023-04-11T21:30:12.044Z,10.30
2023-04-11T21:32:40.584Z,9.10
2023-04-11T21:35:09.025Z,9.20
2023-04-11T21:37:35.780Z,10.40
2023-04-11T21:40:13.369Z,8.90
2023-04-11T21:42:41.063Z,10.40
2023-04-11T21:45:08.387Z,9.50
2023-04-11T21:47:36.193Z,9.30
2023-04-11T21:50:03.439Z,6.80
2023-04-11T21:52:37.400Z,7.50
2023-04-11T21:55:07.194Z,7.90
2023-04-11T21:57:35.439Z,8.20
2023-04-11T22:00:04.284Z,8.50
2023-04-11T22:02:40.553Z,8.40
2023-04-11T22:05:11.986Z,10.50
2023-04-11T22:07:47.983Z,8.20
2023-04-11T22:10:15.409Z,7.90
2023-04-11T22:12:45.027Z,8.30
2023-04-11T22:15:12.023Z,11.70
2023-04-11T22:17:41.745Z,8.40
2023-04-11T22:20:10.509Z,9.00
2023-04-11T22:22:38.694Z,8.40
2023-04-11T22:25:06.817Z,8.90
2023-04-11T22:27:33.780Z,7.80
2023-04-11T22:30:01.693Z,11.60
2023-04-11T22:32:31.159Z,9.20
2023-04-11T22:34:58.845Z,9.20
2023-04-11T22:37:26.465Z,11.80
2023-04-11T22:39:53.843Z,10.60
2023-04-11T22:42:20.841Z,7.50
2023-04-11T22:44:47.509Z,6.50
2023-04-11T22:47:15.893Z,8.30
2023-04-11T22:49:45.325Z,7.60
2023-04-11T22:52:18.441Z,9.10
2023-04-11T22:54:47.469Z,15.40
2023-04-11T22:57:15.166Z,10.20
2023-04-11T22:59:41.898Z,8.10
2023-04-11T23:02:08.989Z,9.40
2023-04-11T23:04:35.918Z,9.10
2023-04-11T23:07:06.256Z,9.20
2023-04-11T23:09:33.505Z,11.10
2023-04-11T23:12:01.977Z,7.10
2023-04-11T23:14:30.532Z,7.90
2023-04-11T23:16:57.294Z,9.10
2023-04-11T23:19:31.538Z,8.20
2023-04-11T23:21:58.879Z,8.30
2023-04-11T23:24:26.590Z,8.70
2023-04-11T23:26:59.793Z,7.30
2023-04-11T23:29:26.785Z,8.60
2023-04-11T23:31:53.420Z,10.70
2023-04-11T23:34:21.478Z,10.50
2023-04-11T23:36:49.976Z,8.60
2023-04-11T23:39:16.667Z,8.30
2023-04-11T23:41:44.314Z,8.40
2023-04-11T23:44:11.419Z,9.40
2023-04-11T23:46:38.694Z,11.00
2023-04-11T23:49:05.502Z,11.30
2023-04-11T23:51:32.953Z,14.70
2023-04-11T23:54:01.090Z,12.70
2023-04-11T23:56:28.488Z,12.10
2023-04-11T23:58:55.685Z,10.90
